createdAt,value
2019-01-10T03:58:56.100Z,96085.00
2019-01-10T04:04:17.627Z,96108.00
2019-01-10T04:09:20.788Z,96105.00
2019-01-10T04:14:49.975Z,96089.00
2019-01-10T04:19:58.668Z,96104.00
2019-01-10T04:25:22.147Z,96115.00
2019-01-10T04:43:00.167Z,96127.00
2019-01-10T04:48:21.419Z,96137.00
2019-01-10T04:53:24.119Z,96139.00
2019-01-10T04:58:45.404Z,96150.00
2019-01-10T05:03:48.949Z,96150.00
2019-01-10T05:09:10.599Z,96160.00
2019-01-10T05:14:16.697Z,96165.00
2019-01-10T05:19:36.238Z,96177.00
2019-01-10T05:24:39.179Z,96172.00
2019-01-10T05:30:00.330Z,96187.00
2019-01-10T05:35:03.567Z,96191.00
2019-01-10T05:45:14.021Z,96205.00
2019-01-10T05:50:19.903Z,96196.00
2019-01-10T05:55:24.271Z,96211.00
2019-01-10T06:00:45.611Z,96210.00
2019-01-10T06:06:07.767Z,96210.00
2019-01-10T06:11:13.735Z,96227.00
2019-01-10T06:16:34.781Z,96219.00
2019-01-10T06:21:42.395Z,96227.00
2019-01-10T06:27:03.688Z,96244.00
2019-01-10T06:32:06.746Z,96245.00
2019-01-10T06:37:12.681Z,96253.00
2019-01-10T06:42:20.953Z,96254.00
2019-01-10T06:47:24.926Z,96265.00
2019-01-10T06:52:41.665Z,96268.00
2019-01-10T06:57:45.331Z,96274.00
2019-01-10T07:02:49.071Z,96284.00
2019-01-10T07:07:56.600Z,96296.00
2019-01-10T07:13:01.959Z,96306.00
2019-01-10T07:18:13.851Z,96310.00
2019-01-10T07:23:17.985Z,96322.00
2019-01-10T07:28:31.430Z,96374.00
2019-01-10T07:33:34.267Z,96330.00
2019-01-10T07:38:37.095Z,96338.00
2019-01-10T07:49:06.656Z,96343.00
2019-01-10T07:54:09.743Z,96353.00
2019-01-10T07:59:21.567Z,96360.00
2019-01-10T08:04:25.503Z,96367.00
2019-01-10T08:09:33.254Z,96365.00
2019-01-10T08:14:37.023Z,96384.00
2019-01-10T08:19:39.873Z,96382.00
2019-01-10T08:24:42.635Z,96394.00
2019-01-10T08:29:45.251Z,96395.00
2019-01-10T08:34:47.999Z,96396.00
2019-01-10T08:39:54.015Z,96400.00
2019-01-10T08:44:56.947Z,96408.00
2019-01-10T08:50:03.231Z,96413.00
2019-01-10T08:55:08.999Z,96414.00
2019-01-10T09:00:14.440Z,96428.00
2019-01-10T09:05:17.954Z,96421.00
2019-01-10T09:10:30.384Z,96413.00
2019-01-10T09:15:34.871Z,96425.00
2019-01-10T09:20:41.758Z,96430.00
2019-01-10T09:25:48.586Z,96428.00
2019-01-10T09:30:51.285Z,96447.00
2019-01-10T09:35:54.137Z,96449.00
2019-01-10T09:40:59.965Z,96457.00
2019-01-10T09:46:03.708Z,96460.00
2019-01-10T09:51:17.552Z,96463.00
2019-01-10T09:56:20.963Z,96470.00
2019-01-10T10:01:26.987Z,96468.00
2019-01-10T10:06:30.531Z,96489.00
2019-01-10T10:11:34.351Z,96485.00
2019-01-10T10:16:37.961Z,96478.00
2019-01-10T10:21:41.757Z,96489.00
2019-01-10T10:26:45.408Z,96488.00
2019-01-10T10:31:49.223Z,96486.00
2019-01-10T10:36:54.912Z,96489.00
2019-01-10T10:42:02.807Z,96497.00
2019-01-10T10:47:05.776Z,96498.00
2019-01-10T10:52:09.436Z,96499.00
2019-01-10T10:57:21.919Z,96514.00
2019-01-10T11:02:25.499Z,96511.00
2019-01-10T11:07:29.202Z,96505.00
2019-01-10T11:12:35.117Z,96516.00
2019-01-10T11:17:38.726Z,96511.00
2019-01-10T11:22:41.751Z,96509.00
2019-01-10T11:27:45.034Z,96522.00
2019-01-10T11:32:56.965Z,96510.00
2019-01-10T11:38:00.471Z,96517.00
2019-01-10T11:43:03.245Z,96515.00
2019-01-10T11:48:06.016Z,96518.00
2019-01-10T11:53:11.787Z,96506.00
2019-01-10T11:58:15.551Z,96522.00
2019-01-10T12:03:37.207Z,96512.00
2019-01-10T12:08:40.324Z,96510.00
2019-01-10T12:13:46.143Z,96510.00
2019-01-10T12:18:49.627Z,96505.00
2019-01-10T12:23:54.262Z,96513.00
2019-01-10T12:29:00.054Z,96514.00
2019-01-10T12:34:06.522Z,96510.00
2019-01-10T12:39:10.455Z,96528.00
2019-01-10T12:44:13.595Z,96514.00
2019-01-10T12:49:16.488Z,96511.00
2019-01-10T12:54:21.907Z,96527.00
2019-01-10T12:59:29.673Z,96525.00
2019-01-10T13:04:42.999Z,96527.00
2019-01-10T13:10:05.742Z,96534.00
2019-01-10T13:15:15.277Z,96542.00
2019-01-10T13:20:27.079Z,96545.00
2019-01-10T13:25:48.311Z,96561.00
2019-01-10T13:30:53.075Z,96560.00
2019-01-10T13:35:56.520Z,96569.00
2019-01-10T13:41:00.028Z,96562.00
2019-01-10T13:46:08.195Z,96570.00
2019-01-10T13:51:13.002Z,96576.00
2019-01-10T13:56:16.363Z,96586.00
2019-01-10T14:01:21.124Z,96583.00
2019-01-10T14:06:24.615Z,96585.00
2019-01-10T14:11:30.595Z,96594.00
2019-01-10T14:16:34.485Z,96603.00
2019-01-10T14:21:46.449Z,96597.00
2019-01-10T14:26:46.022Z,96605.00
2019-01-10T14:31:49.830Z,96598.00
2019-01-10T14:36:54.634Z,96608.00
2019-01-10T14:42:00.516Z,96605.00
2019-01-10T14:47:07.727Z,96615.00
2019-01-10T14:52:10.185Z,96617.00
2019-01-10T14:57:13.881Z,96617.00
2019-01-10T15:02:26.874Z,96632.00
2019-01-10T15:08:04.019Z,96635.00
2019-01-10T15:13:35.492Z,96651.00
2019-01-10T15:18:56.898Z,96650.00
2019-01-10T15:23:59.631Z,96655.00
2019-01-10T15:29:03.242Z,96644.00
2019-01-10T15:34:09.726Z,96661.00
2019-01-10T15:39:13.139Z,96667.00
2019-01-10T15:44:19.929Z,96670.00
2019-01-10T15:49:41.275Z,96682.00
2019-01-10T15:54:44.177Z,96683.00
2019-01-10T15:59:56.603Z,96690.00
2019-01-10T16:04:59.370Z,96700.00
2019-01-10T16:10:07.390Z,96705.00
2019-01-10T16:15:32.280Z,96709.00
2019-01-10T16:20:36.067Z,96720.00
2019-01-10T16:25:50.667Z,96730.00
2019-01-10T16:30:56.472Z,96727.00
2019-01-10T16:36:03.895Z,96731.00
2019-01-10T16:41:07.642Z,96743.00
2019-01-10T16:46:13.036Z,96735.00
2019-01-10T16:51:16.747Z,96747.00
2019-01-10T16:56:22.524Z,96744.00
2019-01-10T17:01:26.323Z,96742.00
2019-01-10T17:06:38.143Z,96745.00
2019-01-10T17:11:41.675Z,96753.00
2019-01-10T17:16:49.942Z,96759.00
2019-01-10T17:21:52.103Z,96760.00
2019-01-10T17:26:55.636Z,96764.00
2019-01-10T17:32:19.212Z,96772.00
2019-01-10T17:37:23.354Z,96789.00
2019-01-10T17:42:45.129Z,96795.00
2019-01-10T17:47:54.155Z,96801.00
2019-01-10T17:52:58.734Z,96796.00
2019-01-10T17:58:02.132Z,96799.00
2019-01-10T18:03:05.725Z,96795.00
2019-01-10T18:08:09.312Z,96793.00
2019-01-10T18:13:13.791Z,96809.00
2019-01-10T18:18:34.991Z,96808.00
2019-01-10T18:23:37.941Z,96805.00
2019-01-10T18:28:45.998Z,96811.00
2019-01-10T18:34:07.019Z,96815.00
2019-01-10T18:39:23.351Z,96810.00
2019-01-10T18:44:44.465Z,96819.00
2019-01-10T18:49:47.994Z,96828.00
2019-01-10T18:55:09.574Z,96829.00
2019-01-10T19:00:16.686Z,96837.00
2019-01-10T19:05:30.685Z,96829.00
2019-01-10T19:10:51.929Z,96833.00
2019-01-10T19:16:03.980Z,96845.00
2019-01-10T19:21:25.047Z,96860.00
2019-01-10T19:26:29.687Z,96860.00
2019-01-10T19:31:51.947Z,96864.00
2019-01-10T19:36:54.668Z,96870.00
2019-01-10T19:42:33.676Z,96940.00
2019-01-10T19:47:56.233Z,96870.00
2019-01-10T19:53:02.610Z,96877.00
2019-01-10T19:58:13.893Z,96877.00
2019-01-10T20:03:38.517Z,96878.00
2019-01-10T20:08:46.385Z,96887.00
2019-01-10T20:14:38.295Z,96877.00
2019-01-10T20:20:14.485Z,96873.00
2019-01-10T20:25:50.342Z,96876.00
2019-01-10T20:36:50.595Z,96882.00
2019-01-10T20:42:07.872Z,96884.00
2019-01-10T20:47:30.994Z,96890.00
2019-01-10T20:53:07.990Z,96871.00
2019-01-10T20:58:26.472Z,96206.00
2019-01-10T21:03:46.807Z,96875.00
2019-01-10T21:09:05.939Z,96870.00
2019-01-10T21:14:14.673Z,96875.00
2019-01-10T21:19:20.657Z,96870.00
2019-01-10T21:24:34.447Z,96878.00
2019-01-10T21:29:37.636Z,96876.00
2019-01-10T21:34:43.969Z,96876.00
2019-01-10T21:39:48.527Z,96878.00
2019-01-10T21:44:51.568Z,96881.00
2019-01-10T21:49:54.496Z,96883.00
2019-01-10T21:54:59.541Z,96891.00
2019-01-10T22:00:07.433Z,96895.00
2019-01-10T22:05:10.917Z,96899.00
2019-01-10T22:10:23.540Z,96899.00
2019-01-10T22:15:27.401Z,96901.00
2019-01-10T22:20:30.415Z,96913.00
2019-01-10T22:25:33.997Z,96902.00
2019-01-10T22:30:37.819Z,96907.00
2019-01-10T22:35:46.801Z,96893.00
2019-01-10T22:40:49.550Z,96893.00
2019-01-10T22:46:02.349Z,96886.00
2019-01-10T22:51:11.510Z,96885.00
2019-01-10T22:56:14.321Z,96897.00
2019-01-10T23:01:45.027Z,96893.00
2019-01-10T23:06:50.885Z,96883.00
2019-01-10T23:11:54.917Z,96877.00
2019-01-10T23:16:58.572Z,96880.00
2019-01-10T23:22:10.651Z,96893.00
2019-01-10T23:27:16.704Z,96899.00
2019-01-10T23:32:37.963Z,96899.00
2019-01-10T23:37:41.157Z,96905.00
2019-01-10T23:42:44.192Z,96890.00
2019-01-10T23:48:05.931Z,96879.00
2019-01-10T23:53:13.748Z,96885.00
2019-01-10T23:58:35.443Z,96887.00
